Staden, Belgium
Current Conditions -  °F | °C
As of 4:50 PM on Thursday 23 Oct 2014 (Local Time) from EBOS Reporting Station
Drizzle Drizzle  
Wind Chill: 55°   Ceiling: 2200
Heat Index: 55°   Visibility: 6mi
Dew Point: 50°   Wind: 17mph
Humidity: 82%   Direction: 210°SSW
Pressure: 30.15"   Gusts: NA
Location:  50.97°N, 3.01°E
Report Text: EBOS 231450Z 21015KT 9000 -DZ SCT014 BKN022 13/10 Q1021 TEMPO BKN014
Loading
Personal Weather Stations






























Interactive Weather Map
Tropical Storm Tracking
New forecast layout! Learn more

10-Day Weather Forecast

Advertisements
Track Severe Weather on mobile